Time;durP1;ratioP1;P1;durP2;ratioP2;P2;SDS_P1;SDS_P2;PMS_P1;PMS_P2;Temp;Humidity;BMP_temperature;BMP_pressure;BME280_temperature;BME280_humidity;BME280_pressure;Samples;Min_cycle;Max_cycle;Signal;HPM_P1;HPM_P2
2022/01/19 00:01:04;;;;;;;2.30;1.23;;;;;;;;;;5023226;28;20025;-57
2022/01/19 00:03:29;;;;;;;2.47;1.55;;;;;;;;;;5022341;28;20450;-52
2022/01/19 00:05:55;;;;;;;1.95;1.60;;;;;;;;;;5022231;28;20032;-51
2022/01/19 00:08:21;;;;;;;2.40;1.40;;;;;;;;;;5021465;28;20021;-54
2022/01/19 00:10:49;;;;;;;1.55;1.10;;;;;;;;;;5022069;28;20041;-53
2022/01/19 00:13:15;;;;;;;2.70;1.10;;;;;;;;;;5020204;28;20091;-57
2022/01/19 00:15:41;;;;;;;2.53;1.13;;;;;;;;;;5022834;28;20033;-55
2022/01/19 00:18:07;;;;;;;1.80;1.20;;;;;;;;;;5021261;28;20068;-55
2022/01/19 00:20:34;;;;;;;2.20;1.48;;;;;;;;;;5020361;28;20055;-54
2022/01/19 00:23:01;;;;;;;1.30;1.20;;;;;;;;;;5020842;28;20037;-56
2022/01/19 00:25:27;;;;;;;1.60;1.30;;;;;;;;;;5021822;28;20069;-54
2022/01/19 00:27:52;;;;;;;1.40;1.30;;;;;;;;;;5022636;28;20053;-55
2022/01/19 00:30:18;;;;;;;1.42;1.20;;;;;;;;;;5021395;28;20029;-57
2022/01/19 00:32:44;;;;;;;2.50;1.20;;;;;;;;;;5023862;28;20044;-55
2022/01/19 00:35:11;;;;;;;0.98;0.85;;;;;;;;;;5022120;28;20032;-54
2022/01/19 00:37:37;;;;;;;1.27;1.02;;;;;;;;;;5020898;28;20029;-54
2022/01/19 00:40:04;;;;;;;1.45;0.93;;;;;;;;;;5022517;28;20993;-55
2022/01/19 00:42:30;;;;;;;1.13;0.93;;;;;;;;;;5021878;28;20124;-56
2022/01/19 00:44:55;;;;;;;2.97;1.30;;;;;;;;;;5026113;28;20781;-54
2022/01/19 00:47:21;;;;;;;1.42;1.10;;;;;;;;;;5023670;28;20140;-57
2022/01/19 00:49:46;;;;;;;1.40;1.08;;;;;;;;;;5023323;28;20026;-54
2022/01/19 00:52:13;;;;;;;1.05;0.98;;;;;;;;;;5022492;28;20069;-56
2022/01/19 00:54:39;;;;;;;0.98;0.93;;;;;;;;;;5024569;28;20481;-56
2022/01/19 00:57:06;;;;;;;1.30;1.17;;;;;;;;;;5026274;28;20068;-53
2022/01/19 00:59:31;;;;;;;4.53;1.40;;;;;;;;;;5026165;28;20033;-56
2022/01/19 01:01:57;;;;;;;3.72;1.20;;;;;;;;;;5026366;28;20038;-57
2022/01/19 01:04:23;;;;;;;1.25;1.00;;;;;;;;;;5024562;28;20029;-57
2022/01/19 01:06:48;;;;;;;3.65;1.27;;;;;;;;;;5023904;28;20030;-52
2022/01/19 01:09:14;;;;;;;3.95;1.25;;;;;;;;;;5024253;28;20033;-58
2022/01/19 01:11:47;;;;;;;2.42;1.50;;;;;;;;;;5024396;28;20033;-56
2022/01/19 01:16:40;;;;;;;3.22;1.00;;;;;;;;;;5025621;28;20749;-56
2022/01/19 01:19:08;;;;;;;2.53;1.23;;;;;;;;;;5026976;28;20748;-56
2022/01/19 01:21:34;;;;;;;1.80;1.05;;;;;;;;;;5023523;28;20038;-55
2022/01/19 01:24:00;;;;;;;1.20;1.02;;;;;;;;;;5024615;28;20030;-56
2022/01/19 01:26:26;;;;;;;1.48;1.17;;;;;;;;;;5023112;28;20029;-54
2022/01/19 01:28:51;;;;;;;3.50;1.60;;;;;;;;;;5026114;28;20456;-55
2022/01/19 01:31:17;;;;;;;1.38;1.00;;;;;;;;;;5025214;28;20385;-55
2022/01/19 01:33:43;;;;;;;2.50;1.27;;;;;;;;;;5024664;28;20029;-53
2022/01/19 01:36:08;;;;;;;2.45;1.20;;;;;;;;;;5023451;28;20025;-55
2022/01/19 01:38:34;;;;;;;1.65;1.50;;;;;;;;;;5025676;28;20412;-55
2022/01/19 01:41:00;;;;;;;2.38;1.23;;;;;;;;;;5024085;28;20021;-54
2022/01/19 01:43:26;;;;;;;3.53;1.17;;;;;;;;;;5024647;28;20036;-57
2022/01/19 01:45:58;;;;;;;1.33;1.00;;;;;;;;;;5024815;28;20041;-53
2022/01/19 01:48:25;;;;;;;3.92;1.20;;;;;;;;;;5022936;28;20025;-55
2022/01/19 01:53:36;;;;;;;1.70;1.08;;;;;;;;;;5024113;28;20098;-51
2022/01/19 01:56:07;;;;;;;1.40;1.30;;;;;;;;;;5023967;28;20025;-57
2022/01/19 01:58:35;;;;;;;1.13;1.02;;;;;;;;;;5023545;28;20366;-53
2022/01/19 02:01:01;;;;;;;1.95;1.23;;;;;;;;;;5023513;28;20398;-51
2022/01/19 02:03:27;;;;;;;1.65;1.20;;;;;;;;;;5024079;28;20021;-50
2022/01/19 02:08:37;;;;;;;2.70;1.40;;;;;;;;;;5024873;28;20311;-51
2022/01/19 02:11:32;;;;;;;2.88;1.35;;;;;;;;;;5023915;28;20038;-50
2022/01/19 02:21:37;;;;;;;1.40;1.00;;;;;;;;;;4969602;28;20045;-49
2022/01/19 02:22:19;;;;;;;1.20;1.08;;;;;;;;;;5024505;28;21122;-51
2022/01/19 02:24:45;;;;;;;3.90;1.23;;;;;;;;;;5023689;28;20492;-51
2022/01/19 02:41:37;;;;;;;1.45;1.20;;;;;;;;;;5018890;28;20810;-52
2022/01/19 02:44:04;;;;;;;1.35;1.15;;;;;;;;;;5025218;28;20029;-53
2022/01/19 02:49:18;;;;;;;1.88;1.20;;;;;;;;;;5023426;28;20059;-53
2022/01/19 02:51:45;;;;;;;2.30;1.40;;;;;;;;;;5024158;28;20033;-52
2022/01/19 02:54:13;;;;;;;2.38;1.50;;;;;;;;;;5023608;28;20081;-50
2022/01/19 02:56:41;;;;;;;3.67;1.60;;;;;;;;;;5024065;28;20659;-52
2022/01/19 02:59:20;;;;;;;2.42;1.55;;;;;;;;;;5025812;28;20032;-51
2022/01/19 03:09:44;;;;;;;2.65;1.50;;;;;;;;;;5024778;28;20091;-51
2022/01/19 03:12:10;;;;;;;2.70;1.85;;;;;;;;;;5024215;28;20473;-51
2022/01/19 03:14:36;;;;;;;1.30;1.13;;;;;;;;;;5022441;28;20028;-54
2022/01/19 03:17:02;;;;;;;3.15;1.48;;;;;;;;;;5023386;28;20033;-51
2022/01/19 03:19:29;;;;;;;1.67;1.42;;;;;;;;;;5022907;28;20029;-52
2022/01/19 03:21:55;;;;;;;1.75;1.20;;;;;;;;;;5024638;28;20025;-50
2022/01/19 03:24:20;;;;;;;2.50;1.45;;;;;;;;;;5022594;28;20668;-54
2022/01/19 03:26:46;;;;;;;3.00;1.30;;;;;;;;;;5024635;28;20056;-50
2022/01/19 03:29:11;;;;;;;3.42;1.40;;;;;;;;;;5021984;28;20044;-52
2022/01/19 03:31:37;;;;;;;3.72;1.60;;;;;;;;;;5023234;28;20711;-54
2022/01/19 03:34:03;;;;;;;2.35;1.52;;;;;;;;;;5024284;28;20359;-51
2022/01/19 03:36:28;;;;;;;2.80;1.40;;;;;;;;;;5023691;28;20110;-53
2022/01/19 03:38:54;;;;;;;2.58;1.48;;;;;;;;;;5022083;28;20067;-54
2022/01/19 03:41:19;;;;;;;3.08;1.70;;;;;;;;;;5023980;28;20124;-51
2022/01/19 03:43:44;;;;;;;2.33;1.75;;;;;;;;;;5024250;28;20075;-53
2022/01/19 03:46:14;;;;;;;2.08;1.70;;;;;;;;;;5024005;28;20025;-55
2022/01/19 03:51:10;;;;;;;7.05;1.80;;;;;;;;;;5025547;28;20056;-56
2022/01/19 03:53:36;;;;;;;1.40;1.20;;;;;;;;;;5024569;28;20033;-53
2022/01/19 03:56:01;;;;;;;2.28;1.60;;;;;;;;;;5027002;28;20108;-53
2022/01/19 03:58:27;;;;;;;4.57;1.58;;;;;;;;;;5023482;28;20044;-53
2022/01/19 04:00:55;;;;;;;3.35;1.85;;;;;;;;;;5025127;28;20033;-56
2022/01/19 04:04:01;;;;;;;1.88;1.67;;;;;;;;;;5022469;28;20111;-54
2022/01/19 04:06:25;;;;;;;2.88;1.70;;;;;;;;;;5022464;28;20080;-55
2022/01/19 04:08:51;;;;;;;2.65;1.88;;;;;;;;;;5023273;28;20074;-51
2022/01/19 04:11:19;;;;;;;4.13;1.70;;;;;;;;;;5023855;28;20093;-55
2022/01/19 04:16:28;;;;;;;3.30;1.85;;;;;;;;;;5024258;28;20307;-53
2022/01/19 04:19:06;;;;;;;3.95;1.92;;;;;;;;;;5027132;28;20040;-50
2022/01/19 04:21:32;;;;;;;3.55;1.92;;;;;;;;;;5027096;28;20025;-54
2022/01/19 04:23:57;;;;;;;3.35;2.30;;;;;;;;;;5030004;28;20091;-53
2022/01/19 04:26:22;;;;;;;2.17;1.98;;;;;;;;;;5026001;28;20060;-53
2022/01/19 04:28:48;;;;;;;3.97;2.30;;;;;;;;;;5027218;28;20037;-50
2022/01/19 04:31:13;;;;;;;3.67;2.28;;;;;;;;;;5024801;28;20522;-53
2022/01/19 04:33:43;;;;;;;5.32;2.60;;;;;;;;;;5025738;28;20057;-54
2022/01/19 04:36:27;;;;;;;4.95;2.65;;;;;;;;;;5027205;28;20032;-51
2022/01/19 05:01:36;;;;;;;2.30;1.90;;;;;;;;;;5027617;28;20033;-52
2022/01/19 05:03:23;;;;;;;2.92;1.90;;;;;;;;;;5023697;28;20059;-50
2022/01/19 05:05:56;;;;;;;2.55;1.65;;;;;;;;;;5025581;28;20139;-51
2022/01/19 05:13:38;;;;;;;4.68;1.73;;;;;;;;;;5026899;28;20121;-54
2022/01/19 05:16:04;;;;;;;2.85;1.88;;;;;;;;;;5025632;28;20059;-54
2022/01/19 05:18:30;;;;;;;7.55;2.00;;;;;;;;;;5027007;28;20178;-54
2022/01/19 05:20:56;;;;;;;7.10;2.42;;;;;;;;;;5027125;28;20059;-53
2022/01/19 05:23:21;;;;;;;3.67;1.98;;;;;;;;;;5025692;28;20060;-54
2022/01/19 05:25:47;;;;;;;2.80;1.88;;;;;;;;;;5025115;28;20048;-52
2022/01/19 05:28:13;;;;;;;4.28;2.10;;;;;;;;;;5023396;28;20155;-56
2022/01/19 05:30:38;;;;;;;1.90;1.70;;;;;;;;;;5025575;28;20125;-53
2022/01/19 05:33:04;;;;;;;4.65;2.17;;;;;;;;;;5023065;28;20029;-54
2022/01/19 05:35:30;;;;;;;4.38;1.95;;;;;;;;;;5021845;28;20037;-54
2022/01/19 05:37:55;;;;;;;4.00;1.75;;;;;;;;;;5026769;28;20029;-53
2022/01/19 05:40:21;;;;;;;2.20;1.98;;;;;;;;;;5024537;28;20659;-52
2022/01/19 05:42:48;;;;;;;2.55;1.73;;;;;;;;;;5025373;28;20033;-54
2022/01/19 05:45:15;;;;;;;3.15;2.22;;;;;;;;;;5023655;28;20030;-55
2022/01/19 05:47:40;;;;;;;5.15;2.17;;;;;;;;;;5024481;28;20405;-52
2022/01/19 05:50:06;;;;;;;3.40;2.28;;;;;;;;;;5024408;28;20078;-56
2022/01/19 05:52:32;;;;;;;5.03;2.10;;;;;;;;;;5026819;28;20493;-53
2022/01/19 05:54:57;;;;;;;3.30;2.53;;;;;;;;;;5025406;28;20064;-55
2022/01/19 05:57:23;;;;;;;7.90;2.50;;;;;;;;;;5023545;28;20053;-54
2022/01/19 05:59:49;;;;;;;3.72;2.30;;;;;;;;;;5023570;28;20452;-56
2022/01/19 06:02:16;;;;;;;2.83;2.20;;;;;;;;;;5023824;28;20033;-55
2022/01/19 06:04:42;;;;;;;3.20;2.10;;;;;;;;;;5025036;28;20532;-53
2022/01/19 06:07:07;;;;;;;2.83;1.95;;;;;;;;;;5023941;28;20060;-55
2022/01/19 06:11:59;;;;;;;3.38;1.98;;;;;;;;;;5025488;28;20104;-52
2022/01/19 06:14:24;;;;;;;4.05;2.30;;;;;;;;;;5025727;28;20932;-54
2022/01/19 06:16:49;;;;;;;3.50;2.15;;;;;;;;;;5024049;28;20032;-54
2022/01/19 06:19:19;;;;;;;3.63;1.98;;;;;;;;;;5025849;28;20052;-56
2022/01/19 06:21:44;;;;;;;6.13;2.42;;;;;;;;;;5025515;28;20030;-56
2022/01/19 06:24:10;;;;;;;3.28;2.30;;;;;;;;;;5025072;28;20078;-55
2022/01/19 06:26:36;;;;;;;2.85;2.25;;;;;;;;;;5024870;28;20138;-59
2022/01/19 06:29:02;;;;;;;2.63;2.15;;;;;;;;;;5026691;28;20067;-56
2022/01/19 06:31:27;;;;;;;2.58;2.20;;;;;;;;;;5027276;28;20025;-54
2022/01/19 06:33:53;;;;;;;3.58;2.38;;;;;;;;;;5024461;28;20438;-56
2022/01/19 06:36:18;;;;;;;4.63;2.08;;;;;;;;;;5024675;28;20077;-55
2022/01/19 06:38:43;;;;;;;3.22;1.92;;;;;;;;;;5024904;28;20026;-53
2022/01/19 06:41:09;;;;;;;2.63;2.00;;;;;;;;;;5025057;28;20029;-51
2022/01/19 06:43:34;;;;;;;4.75;2.22;;;;;;;;;;5024844;28;20432;-53
2022/01/19 06:46:00;;;;;;;3.10;2.28;;;;;;;;;;5024960;28;20030;-52
2022/01/19 06:48:26;;;;;;;4.28;2.40;;;;;;;;;;5026005;28;20037;-52
2022/01/19 06:50:51;;;;;;;3.33;2.60;;;;;;;;;;5025229;28;20038;-53
2022/01/19 06:53:17;;;;;;;5.78;2.05;;;;;;;;;;5026127;28;20100;-52
2022/01/19 06:55:42;;;;;;;4.25;2.40;;;;;;;;;;5026980;28;20033;-53
2022/01/19 06:58:08;;;;;;;3.17;2.88;;;;;;;;;;5026309;28;20059;-52
2022/01/19 07:00:33;;;;;;;4.40;2.97;;;;;;;;;;5025144;28;20025;-56
2022/01/19 07:02:58;;;;;;;3.55;3.03;;;;;;;;;;5025243;28;20051;-55
2022/01/19 07:05:24;;;;;;;5.32;2.95;;;;;;;;;;5024468;28;20033;-54
2022/01/19 07:07:52;;;;;;;7.07;3.05;;;;;;;;;;5025816;28;20474;-52
2022/01/19 07:10:17;;;;;;;3.92;3.22;;;;;;;;;;5022803;28;20026;-51
2022/01/19 07:12:43;;;;;;;4.88;3.17;;;;;;;;;;5022781;28;20055;-52
2022/01/19 07:15:09;;;;;;;4.45;3.30;;;;;;;;;;5024416;28;20021;-51
2022/01/19 07:17:35;;;;;;;5.72;3.30;;;;;;;;;;5024982;28;20079;-54
2022/01/19 07:20:01;;;;;;;8.65;4.10;;;;;;;;;;5024872;28;20181;-55
2022/01/19 07:22:26;;;;;;;6.38;3.95;;;;;;;;;;5026457;28;20127;-55
2022/01/19 07:24:52;;;;;;;5.50;3.85;;;;;;;;;;5024086;28;20033;-51
2022/01/19 07:27:17;;;;;;;7.72;3.80;;;;;;;;;;5025505;28;20052;-56
2022/01/19 07:29:43;;;;;;;7.00;3.70;;;;;;;;;;5023278;28;20037;-53
2022/01/19 07:32:10;;;;;;;5.80;4.25;;;;;;;;;;5024631;28;20686;-51
2022/01/19 07:34:36;;;;;;;7.28;3.80;;;;;;;;;;5026460;28;20402;-53
2022/01/19 07:37:02;;;;;;;5.70;3.70;;;;;;;;;;5022364;28;20108;-55
2022/01/19 07:39:28;;;;;;;7.53;4.05;;;;;;;;;;5008976;28;20036;-51
2022/01/19 07:41:55;;;;;;;6.20;4.25;;;;;;;;;;5021540;28;20655;-53
2022/01/19 07:44:21;;;;;;;9.27;4.60;;;;;;;;;;5026005;28;20041;-55
2022/01/19 07:46:46;;;;;;;9.90;4.63;;;;;;;;;;5025647;28;20491;-55
2022/01/19 07:49:12;;;;;;;9.35;4.53;;;;;;;;;;5024510;28;20037;-53
2022/01/19 07:51:37;;;;;;;5.20;4.05;;;;;;;;;;5022229;28;20044;-54
2022/01/19 07:54:03;;;;;;;11.63;4.55;;;;;;;;;;5031554;28;20035;-54
2022/01/19 07:56:28;;;;;;;9.80;4.68;;;;;;;;;;5032180;28;20037;-52
2022/01/19 07:58:53;;;;;;;6.53;4.13;;;;;;;;;;5031776;28;20083;-55
2022/01/19 08:01:19;;;;;;;7.63;4.20;;;;;;;;;;5030268;28;20037;-55
2022/01/19 08:03:44;;;;;;;8.63;4.60;;;;;;;;;;5031587;28;20079;-56
2022/01/19 08:06:10;;;;;;;6.30;4.20;;;;;;;;;;5031134;28;20141;-54
2022/01/19 08:08:36;;;;;;;5.70;4.13;;;;;;;;;;5030870;28;20030;-52
2022/01/19 08:11:02;;;;;;;10.93;4.40;;;;;;;;;;5031247;28;20132;-54
2022/01/19 08:13:27;;;;;;;10.68;4.90;;;;;;;;;;5032435;28;20048;-53
2022/01/19 08:15:53;;;;;;;9.60;4.70;;;;;;;;;;5032138;28;20327;-56
2022/01/19 08:18:18;;;;;;;10.13;4.93;;;;;;;;;;5031369;28;20771;-54
2022/01/19 08:20:43;;;;;;;9.73;4.82;;;;;;;;;;5031815;28;20014;-54
2022/01/19 08:23:10;;;;;;;10.45;5.60;;;;;;;;;;5030951;28;20104;-52
2022/01/19 08:25:35;;;;;;;8.18;5.40;;;;;;;;;;5026607;28;21692;-52
2022/01/19 08:28:00;;;;;;;10.50;5.32;;;;;;;;;;5030172;28;20033;-55
2022/01/19 08:30:26;;;;;;;11.95;5.25;;;;;;;;;;5031203;28;20047;-53
2022/01/19 08:32:51;;;;;;;8.57;6.10;;;;;;;;;;5030761;28;20029;-52
2022/01/19 08:35:17;;;;;;;11.98;5.63;;;;;;;;;;5012760;28;20036;-52
2022/01/19 08:37:42;;;;;;;8.80;5.65;;;;;;;;;;5028454;28;20104;-52
2022/01/19 08:40:09;;;;;;;8.48;5.18;;;;;;;;;;5031206;28;20381;-55
2022/01/19 08:42:36;;;;;;;13.75;5.80;;;;;;;;;;5029737;28;20038;-54
2022/01/19 08:45:07;;;;;;;10.63;5.70;;;;;;;;;;5029455;28;20048;-52
2022/01/19 08:47:38;;;;;;;7.55;5.43;;;;;;;;;;5028127;28;20027;-56
2022/01/19 08:50:10;;;;;;;9.50;5.43;;;;;;;;;;5030557;28;20484;-54
2022/01/19 08:52:36;;;;;;;13.38;6.00;;;;;;;;;;5031445;28;20095;-53
2022/01/19 08:55:02;;;;;;;10.13;6.32;;;;;;;;;;5031181;28;20041;-53
2022/01/19 08:57:27;;;;;;;10.85;5.60;;;;;;;;;;5028949;28;20473;-55
2022/01/19 08:59:53;;;;;;;8.98;5.20;;;;;;;;;;5028919;28;20030;-52
2022/01/19 09:02:19;;;;;;;9.18;5.70;;;;;;;;;;5027693;28;20045;-53
2022/01/19 09:04:45;;;;;;;9.82;5.50;;;;;;;;;;5027034;28;20040;-52
2022/01/19 09:07:10;;;;;;;8.02;5.20;;;;;;;;;;5026307;28;20037;-53
2022/01/19 09:09:36;;;;;;;8.73;5.63;;;;;;;;;;5028892;28;20049;-54
2022/01/19 09:12:01;;;;;;;10.10;5.78;;;;;;;;;;5026885;28;20588;-57
2022/01/19 09:14:26;;;;;;;10.20;5.88;;;;;;;;;;5027583;28;20029;-58
2022/01/19 09:16:52;;;;;;;13.32;6.00;;;;;;;;;;5026139;28;20427;-53
2022/01/19 09:19:19;;;;;;;10.02;5.40;;;;;;;;;;5025045;28;20026;-53
2022/01/19 09:21:45;;;;;;;8.68;5.82;;;;;;;;;;5026850;28;20470;-55
2022/01/19 09:24:10;;;;;;;10.10;5.88;;;;;;;;;;5026110;28;20117;-55
2022/01/19 09:26:37;;;;;;;12.65;5.88;;;;;;;;;;5025292;28;20140;-54
2022/01/19 09:29:03;;;;;;;9.50;5.72;;;;;;;;;;5027400;28;20045;-53
2022/01/19 09:31:29;;;;;;;11.98;5.88;;;;;;;;;;5023241;28;20021;-51
2022/01/19 09:34:04;;;;;;;13.10;5.63;;;;;;;;;;5026745;28;20031;-56
2022/01/19 09:36:32;;;;;;;10.27;5.30;;;;;;;;;;5027494;28;20032;-52
2022/01/19 09:38:58;;;;;;;9.90;5.57;;;;;;;;;;5029017;28;20022;-52
2022/01/19 09:41:25;;;;;;;9.90;5.43;;;;;;;;;;5027058;28;20017;-53
2022/01/19 09:43:50;;;;;;;8.15;5.43;;;;;;;;;;5025463;28;20430;-52
2022/01/19 09:46:15;;;;;;;13.63;6.32;;;;;;;;;;5025636;28;20033;-52
2022/01/19 09:48:41;;;;;;;12.82;5.93;;;;;;;;;;5022736;28;20155;-53
2022/01/19 09:51:07;;;;;;;10.10;5.47;;;;;;;;;;5024577;28;20041;-51
2022/01/19 09:53:32;;;;;;;13.73;6.20;;;;;;;;;;5022586;28;20060;-52
2022/01/19 09:55:58;;;;;;;9.35;5.88;;;;;;;;;;5025122;28;20033;-53
2022/01/19 09:58:24;;;;;;;14.13;6.05;;;;;;;;;;5026086;28;20080;-51
2022/01/19 10:00:50;;;;;;;10.35;6.13;;;;;;;;;;5025150;28;20056;-52
2022/01/19 10:03:19;;;;;;;11.55;6.20;;;;;;;;;;5025282;28;20029;-54
2022/01/19 10:06:07;;;;;;;9.73;5.75;;;;;;;;;;5026751;28;20033;-52
2022/01/19 10:08:55;;;;;;;9.35;5.90;;;;;;;;;;5026634;28;20112;-58
2022/01/19 10:17:00;;;;;;;11.13;5.68;;;;;;;;;;5025786;28;20048;-54
2022/01/19 10:19:31;;;;;;;12.27;6.00;;;;;;;;;;5025398;28;20034;-51
2022/01/19 10:22:00;;;;;;;8.93;5.57;;;;;;;;;;5023294;28;20033;-50
2022/01/19 10:24:56;;;;;;;10.57;6.28;;;;;;;;;;5025299;28;20470;-51
2022/01/19 10:27:27;;;;;;;9.40;5.97;;;;;;;;;;5024136;28;21318;-51
2022/01/19 10:30:03;;;;;;;10.65;5.78;;;;;;;;;;5026061;28;20040;-55
2022/01/19 10:32:33;;;;;;;12.23;6.07;;;;;;;;;;5026253;28;20026;-56
2022/01/19 10:35:32;;;;;;;10.07;6.30;;;;;;;;;;5023195;28;20171;-55
2022/01/19 10:38:11;;;;;;;10.00;5.63;;;;;;;;;;5026038;28;20040;-51
2022/01/19 10:40:38;;;;;;;11.02;6.20;;;;;;;;;;5024431;28;21410;-51
2022/01/19 10:43:31;;;;;;;11.18;6.32;;;;;;;;;;5023929;28;20030;-53
2022/01/19 10:46:00;;;;;;;14.97;6.03;;;;;;;;;;5024277;28;20025;-54
2022/01/19 10:48:37;;;;;;;14.45;6.13;;;;;;;;;;5024021;28;20117;-50
2022/01/19 10:51:16;;;;;;;9.95;5.35;;;;;;;;;;5024806;28;20132;-52
2022/01/19 10:53:44;;;;;;;10.52;5.97;;;;;;;;;;5023600;28;20078;-52
2022/01/19 10:56:29;;;;;;;13.25;5.45;;;;;;;;;;5025822;28;20112;-53
2022/01/19 10:59:02;;;;;;;11.85;5.10;;;;;;;;;;5023777;28;20374;-53
2022/01/19 11:01:41;;;;;;;12.47;5.70;;;;;;;;;;5025153;28;20018;-54
2022/01/19 11:04:31;;;;;;;10.68;5.20;;;;;;;;;;5025891;28;20036;-51
2022/01/19 11:07:07;;;;;;;11.35;5.50;;;;;;;;;;5016114;28;20411;-51
2022/01/19 11:09:43;;;;;;;13.30;6.13;;;;;;;;;;5025955;28;20379;-55
2022/01/19 11:12:12;;;;;;;8.63;5.05;;;;;;;;;;5023101;28;20038;-51
2022/01/19 11:14:40;;;;;;;8.35;5.32;;;;;;;;;;5024581;28;20385;-54
2022/01/19 11:17:06;;;;;;;9.95;5.75;;;;;;;;;;5023890;28;20021;-54
2022/01/19 11:19:38;;;;;;;10.82;5.75;;;;;;;;;;5023396;28;20116;-51
2022/01/19 11:22:34;;;;;;;10.77;5.23;;;;;;;;;;5024698;28;20354;-53
2022/01/19 11:25:18;;;;;;;12.32;5.75;;;;;;;;;;5010385;28;20053;-52
2022/01/19 11:27:45;;;;;;;8.32;5.25;;;;;;;;;;5023576;28;20066;-54
2022/01/19 11:30:17;;;;;;;12.48;5.50;;;;;;;;;;5023328;28;20033;-52
2022/01/19 11:32:44;;;;;;;10.80;6.53;;;;;;;;;;5023050;28;20482;-56
2022/01/19 11:35:36;;;;;;;11.63;6.10;;;;;;;;;;5025586;28;20512;-56
2022/01/19 11:38:38;;;;;;;12.43;6.60;;;;;;;;;;5024808;28;20047;-54
2022/01/19 11:41:25;;;;;;;10.45;6.53;;;;;;;;;;5026163;28;20068;-54
2022/01/19 11:43:56;;;;;;;13.55;6.47;;;;;;;;;;5023136;28;20037;-56
2022/01/19 11:46:39;;;;;;;14.43;6.88;;;;;;;;;;5023689;28;20037;-52
2022/01/19 11:49:05;;;;;;;14.33;6.70;;;;;;;;;;5024292;28;20492;-55
2022/01/19 11:51:40;;;;;;;13.15;6.90;;;;;;;;;;5020651;28;20083;-57
2022/01/19 11:54:15;;;;;;;17.35;7.63;;;;;;;;;;5022481;28;20029;-54
2022/01/19 11:57:06;;;;;;;12.68;7.68;;;;;;;;;;5019979;28;20029;-52
2022/01/19 11:59:37;;;;;;;14.93;7.95;;;;;;;;;;5021190;28;20087;-53
2022/01/19 12:02:21;;;;;;;15.77;8.25;;;;;;;;;;5022954;28;20034;-54
2022/01/19 12:04:50;;;;;;;17.45;8.23;;;;;;;;;;5023037;28;20112;-55
2022/01/19 12:07:35;;;;;;;17.67;8.85;;;;;;;;;;5023370;28;20037;-51
2022/01/19 12:10:01;;;;;;;17.48;8.93;;;;;;;;;;5020828;28;20025;-55
2022/01/19 12:12:31;;;;;;;17.17;9.30;;;;;;;;;;5024432;28;20041;-52
2022/01/19 12:14:57;;;;;;;16.98;9.15;;;;;;;;;;5023142;28;20079;-53
2022/01/19 12:17:26;;;;;;;19.13;8.63;;;;;;;;;;5023674;28;20037;-54
2022/01/19 12:19:53;;;;;;;18.67;10.27;;;;;;;;;;5026326;28;20029;-54
2022/01/19 12:22:27;;;;;;;18.60;9.27;;;;;;;;;;5021823;28;20029;-52
2022/01/19 12:24:58;;;;;;;18.38;10.70;;;;;;;;;;5021137;28;20069;-54
2022/01/19 12:27:27;;;;;;;20.95;10.15;;;;;;;;;;5021871;28;20099;-56
2022/01/19 12:29:58;;;;;;;19.00;10.15;;;;;;;;;;5022666;28;20135;-55
2022/01/19 12:32:26;;;;;;;18.60;10.55;;;;;;;;;;5023016;28;20025;-56
2022/01/19 12:34:54;;;;;;;24.35;11.40;;;;;;;;;;5023807;28;20045;-55
2022/01/19 12:37:40;;;;;;;22.83;12.27;;;;;;;;;;5024746;28;20033;-53
2022/01/19 12:40:06;;;;;;;21.02;11.27;;;;;;;;;;5023586;28;20103;-54
2022/01/19 12:42:46;;;;;;;22.20;11.68;;;;;;;;;;5027032;28;20515;-52
2022/01/19 12:45:21;;;;;;;24.88;11.43;;;;;;;;;;5026019;28;20026;-55
2022/01/19 12:47:52;;;;;;;19.67;11.38;;;;;;;;;;5025771;28;20107;-54
2022/01/19 12:50:17;;;;;;;24.00;11.77;;;;;;;;;;5025783;28;20799;-53
2022/01/19 12:52:57;;;;;;;21.65;11.27;;;;;;;;;;5026569;28;20112;-53
2022/01/19 12:55:28;;;;;;;21.90;10.23;;;;;;;;;;5025279;28;20917;-55
2022/01/19 12:57:56;;;;;;;17.92;9.68;;;;;;;;;;5026535;28;20044;-51
2022/01/19 13:00:32;;;;;;;16.42;9.15;;;;;;;;;;5009328;28;20121;-53
2022/01/19 13:02:58;;;;;;;16.77;8.73;;;;;;;;;;5025951;28;20075;-53
2022/01/19 13:05:29;;;;;;;16.15;9.05;;;;;;;;;;5025973;28;20108;-55
2022/01/19 13:08:00;;;;;;;16.73;9.25;;;;;;;;;;5026968;28;20021;-52
2022/01/19 13:10:43;;;;;;;14.77;8.20;;;;;;;;;;5027906;28;20033;-53
2022/01/19 13:13:25;;;;;;;;;;;;;;;;;;5026908;28;20060;-54
2022/01/19 13:15:56;;;;;;;12.65;7.40;;;;;;;;;;5026309;28;19925;-52
2022/01/19 13:18:38;;;;;;;14.23;7.63;;;;;;;;;;5024550;28;20460;-51
2022/01/19 13:21:07;;;;;;;15.68;8.75;;;;;;;;;;5026108;28;20092;-54
2022/01/19 13:23:36;;;;;;;15.10;8.25;;;;;;;;;;5024689;28;20053;-55
2022/01/19 13:26:04;;;;;;;14.98;8.05;;;;;;;;;;5023551;28;20116;-51
2022/01/19 13:28:32;;;;;;;15.52;8.32;;;;;;;;;;5026320;28;20029;-53
2022/01/19 13:31:19;;;;;;;13.20;7.88;;;;;;;;;;5042816;28;20021;-56
2022/01/19 13:33:55;;;;;;;15.10;7.95;;;;;;;;;;5026594;28;20033;-52
2022/01/19 13:36:32;;;;;;;15.30;7.75;;;;;;;;;;5026099;28;20028;-52
2022/01/19 13:38:58;;;;;;;14.68;7.80;;;;;;;;;;5026285;28;20622;-51
2022/01/19 13:41:25;;;;;;;12.20;7.68;;;;;;;;;;5022491;28;20034;-53
2022/01/19 13:43:52;;;;;;;15.15;8.07;;;;;;;;;;5014507;28;20175;-54
2022/01/19 13:46:25;;;;;;;18.63;8.88;;;;;;;;;;5025644;28;20536;-53
2022/01/19 13:48:58;;;;;;;12.75;7.43;;;;;;;;;;5025942;28;20731;-52
2022/01/19 13:51:25;;;;;;;15.45;8.82;;;;;;;;;;5025725;28;20030;-55
2022/01/19 13:53:53;;;;;;;18.25;9.15;;;;;;;;;;5026357;28;20041;-54
2022/01/19 13:56:26;;;;;;;16.63;8.77;;;;;;;;;;5025801;28;20095;-52
2022/01/19 13:59:02;;;;;;;15.90;8.95;;;;;;;;;;5024248;28;20521;-52
2022/01/19 14:01:40;;;;;;;17.85;10.23;;;;;;;;;;5025890;28;20029;-52
2022/01/19 14:04:09;;;;;;;22.42;9.85;;;;;;;;;;5023238;28;20029;-51
2022/01/19 14:06:43;;;;;;;22.50;9.93;;;;;;;;;;5022277;28;20906;-55
2022/01/19 14:09:12;;;;;;;15.40;9.45;;;;;;;;;;5026727;28;20211;-55
2022/01/19 14:11:40;;;;;;;16.25;9.07;;;;;;;;;;5024310;28;20033;-55
2022/01/19 14:14:11;;;;;;;19.27;9.70;;;;;;;;;;5024622;28;20461;-52
2022/01/19 14:16:44;;;;;;;18.77;9.63;;;;;;;;;;5024729;28;20691;-54
2022/01/19 14:19:27;;;;;;;17.55;9.43;;;;;;;;;;5024514;28;20045;-54
2022/01/19 14:21:57;;;;;;;16.63;9.02;;;;;;;;;;5025775;28;20446;-52
2022/01/19 14:24:27;;;;;;;18.50;9.15;;;;;;;;;;5024910;28;20025;-52
2022/01/19 14:26:55;;;;;;;20.02;9.23;;;;;;;;;;5024829;28;20800;-52
2022/01/19 14:29:22;;;;;;;15.82;8.68;;;;;;;;;;5024193;28;20039;-58
2022/01/19 14:31:59;;;;;;;17.58;9.15;;;;;;;;;;5022780;28;20037;-55
2022/01/19 14:34:41;;;;;;;15.75;8.48;;;;;;;;;;5024162;28;20084;-56
2022/01/19 14:37:26;;;;;;;13.75;7.78;;;;;;;;;;5021923;28;20056;-57
2022/01/19 14:39:59;;;;;;;16.42;8.07;;;;;;;;;;5026188;28;20124;-53
2022/01/19 14:42:29;;;;;;;16.95;8.07;;;;;;;;;;5024271;28;20064;-52
2022/01/19 14:45:18;;;;;;;16.20;7.57;;;;;;;;;;5025419;28;20497;-52
2022/01/19 14:47:44;;;;;;;16.38;8.30;;;;;;;;;;5025564;28;20615;-53
2022/01/19 14:50:25;;;;;;;17.27;8.77;;;;;;;;;;5023121;28;20121;-56
2022/01/19 14:52:55;;;;;;;13.63;7.03;;;;;;;;;;5024093;28;20025;-52
2022/01/19 14:55:23;;;;;;;12.95;7.38;;;;;;;;;;5025301;28;20112;-55
2022/01/19 14:57:50;;;;;;;16.55;8.00;;;;;;;;;;5024223;28;21473;-55
2022/01/19 15:00:17;;;;;;;14.32;7.80;;;;;;;;;;5021999;28;20018;-52
2022/01/19 15:02:43;;;;;;;13.93;7.18;;;;;;;;;;5021444;28;20033;-60
2022/01/19 15:05:09;;;;;;;14.02;8.15;;;;;;;;;;5022833;28;20374;-54
2022/01/19 15:07:38;;;;;;;14.57;7.35;;;;;;;;;;5024218;28;20385;-52
2022/01/19 15:10:04;;;;;;;15.63;8.30;;;;;;;;;;5024410;28;20018;-56
2022/01/19 15:12:30;;;;;;;11.98;7.72;;;;;;;;;;5026855;28;20037;-56
2022/01/19 15:14:57;;;;;;;10.68;6.45;;;;;;;;;;5011475;28;20116;-55
2022/01/19 15:17:22;;;;;;;12.40;6.75;;;;;;;;;;5025730;28;20025;-58
2022/01/19 15:19:47;;;;;;;12.18;6.70;;;;;;;;;;5006105;28;20037;-56
2022/01/19 15:22:13;;;;;;;10.27;6.53;;;;;;;;;;5024137;28;20475;-53
2022/01/19 15:24:38;;;;;;;11.60;6.97;;;;;;;;;;5024669;28;20022;-52
2022/01/19 15:27:04;;;;;;;10.57;5.88;;;;;;;;;;5023522;28;20032;-55
2022/01/19 15:29:29;;;;;;;12.40;5.85;;;;;;;;;;5025230;28;20029;-54
2022/01/19 15:31:54;;;;;;;9.88;5.78;;;;;;;;;;5024514;28;20033;-53
2022/01/19 15:34:20;;;;;;;12.93;5.78;;;;;;;;;;5021255;28;20537;-57
2022/01/19 15:36:47;;;;;;;10.35;5.70;;;;;;;;;;5023017;28;20026;-57
2022/01/19 15:39:13;;;;;;;11.52;6.10;;;;;;;;;;5023532;28;20111;-54
2022/01/19 15:41:39;;;;;;;11.38;6.57;;;;;;;;;;5023114;28;20030;-57
2022/01/19 15:44:05;;;;;;;9.63;5.57;;;;;;;;;;5026434;28;20033;-53
2022/01/19 15:46:31;;;;;;;11.65;6.18;;;;;;;;;;5023415;28;20045;-51
2022/01/19 15:48:56;;;;;;;11.30;6.25;;;;;;;;;;5024496;28;20025;-53
2022/01/19 15:51:22;;;;;;;10.25;5.80;;;;;;;;;;5026101;28;20120;-55
2022/01/19 15:53:47;;;;;;;10.05;6.07;;;;;;;;;;5026303;28;20093;-53
2022/01/19 15:56:13;;;;;;;12.75;6.13;;;;;;;;;;5026915;28;20445;-54
2022/01/19 15:58:39;;;;;;;13.40;7.00;;;;;;;;;;5025210;28;20528;-54
2022/01/19 16:01:04;;;;;;;10.45;6.25;;;;;;;;;;5024999;28;20392;-57
2022/01/19 16:03:29;;;;;;;12.57;6.80;;;;;;;;;;5025570;28;20041;-56
2022/01/19 16:05:55;;;;;;;11.98;6.72;;;;;;;;;;5025539;28;20069;-56